Time;durP1;ratioP1;P1;durP2;ratioP2;P2;SDS_P1;SDS_P2;PMS_P1;PMS_P2;Temp;Humidity;BMP_temperature;BMP_pressure;BME280_temperature;BME280_humidity;BME280_pressure;Samples;Min_cycle;Max_cycle;Signal;HPM_P1;HPM_P2
2023/01/14 09:49:45;;;;;;;8.82;2.08;;;9.20;99.90;;;;;;5076232;27;1989888;-62
2023/01/14 09:52:33;;;;;;;4.88;1.58;;;9.10;99.90;;;;;;5114610;28;20157;-63
2023/01/14 09:55:12;;;;;;;5.72;1.55;;;9.20;99.90;;;;;;5114891;28;20084;-64
2023/01/14 09:57:55;;;;;;;4.78;1.55;;;9.20;99.90;;;;;;5096875;28;20031;-63
2023/01/14 10:00:30;;;;;;;5.25;1.40;;;9.30;99.90;;;;;;5114594;28;20107;-64
2023/01/14 10:03:28;;;;;;;8.45;1.60;;;9.20;99.90;;;;;;5114617;28;20035;-63
2023/01/14 10:05:58;;;;;;;7.72;1.67;;;9.20;99.90;;;;;;5114480;28;20039;-63
2023/01/14 10:08:28;;;;;;;6.68;1.60;;;9.30;99.90;;;;;;5096558;28;20387;-63
2023/01/14 10:10:55;;;;;;;4.13;1.00;;;9.30;99.90;;;;;;5114401;28;20027;-64
2023/01/14 10:13:34;;;;;;;6.25;1.40;;;9.30;99.90;;;;;;5114325;28;20027;-63
2023/01/14 10:16:28;;;;;;;7.75;1.45;;;9.30;99.90;;;;;;5114300;28;20028;-64
2023/01/14 10:19:22;;;;;;;6.75;0.90;;;9.40;99.90;;;;;;5114340;28;20375;-63
2023/01/14 10:22:02;;;;;;;4.68;1.02;;;9.40;99.90;;;;;;5093439;28;20052;-64
2023/01/14 10:24:29;;;;;;;3.72;1.10;;;9.40;99.90;;;;;;5114416;28;20345;-65
2023/01/14 10:30:44;;;;;;;5.15;1.13;;;9.50;99.90;;;;;;5114435;28;20047;-65
2023/01/14 10:33:14;;;;;;;4.75;1.10;;;9.40;99.90;;;;;;5114035;28;20032;-65
2023/01/14 10:36:02;;;;;;;4.30;1.00;;;9.40;99.90;;;;;;5079650;28;20341;-66
2023/01/14 10:38:29;;;;;;;3.38;0.95;;;9.40;99.90;;;;;;5113275;28;20058;-65
2023/01/14 10:41:00;;;;;;;6.55;1.38;;;9.50;99.90;;;;;;5096147;28;20027;-67
2023/01/14 10:43:33;;;;;;;2.60;0.93;;;9.50;99.90;;;;;;5113910;28;20032;-64
2023/01/14 10:45:59;;;;;;;4.78;1.13;;;9.50;99.90;;;;;;5079277;28;20317;-66
2023/01/14 10:48:33;;;;;;;4.63;1.30;;;9.50;99.90;;;;;;5096109;28;20042;-65
2023/01/14 10:51:31;;;;;;;3.30;1.10;;;9.50;99.90;;;;;;5113530;28;20311;-66
2023/01/14 10:54:19;;;;;;;2.78;1.10;;;9.60;99.90;;;;;;5113589;28;20031;-66
2023/01/14 10:56:52;;;;;;;4.47;1.23;;;9.50;99.90;;;;;;5113581;28;20096;-65
2023/01/14 10:59:23;;;;;;;2.08;1.00;;;9.50;99.90;;;;;;5110155;28;20303;-66
2023/01/14 11:01:49;;;;;;;3.63;1.10;;;9.60;99.90;;;;;;5065416;28;20032;-67
2023/01/14 11:04:15;;;;;;;2.17;1.00;;;9.70;99.90;;;;;;5082722;28;20269;-64
2023/01/14 11:06:41;;;;;;;3.03;1.05;;;9.60;99.90;;;;;;5065092;28;20043;-66
2023/01/14 11:09:18;;;;;;;2.83;1.15;;;9.60;99.90;;;;;;5082348;28;20032;-66
2023/01/14 11:11:46;;;;;;;3.13;1.00;;;9.60;99.90;;;;;;5082148;28;20032;-65
2023/01/14 11:14:27;;;;;;;3.58;1.40;;;9.70;99.90;;;;;;5065326;28;20322;-66
2023/01/14 11:16:53;;;;;;;3.50;1.02;;;9.70;99.90;;;;;;5082158;28;20020;-66
2023/01/14 11:19:21;;;;;;;5.25;1.20;;;9.70;99.90;;;;;;5081964;28;20046;-64
2023/01/14 11:21:58;;;;;;;1.85;0.90;;;9.80;99.90;;;;;;5065108;28;20032;-64
2023/01/14 11:24:44;;;;;;;4.00;0.95;;;9.70;99.90;;;;;;5099413;28;20036;-63
2023/01/14 11:27:22;;;;;;;5.88;2.03;;;9.80;99.90;;;;;;5099209;28;20028;-66
2023/01/14 11:29:56;;;;;;;3.80;1.85;;;9.90;99.90;;;;;;5099352;28;20028;-66
2023/01/14 11:32:32;;;;;;;2.17;1.00;;;9.80;99.90;;;;;;5099165;28;20021;-66
2023/01/14 11:35:01;;;;;;;2.15;1.10;;;9.90;99.90;;;;;;5064630;28;20383;-64
2023/01/14 11:37:42;;;;;;;3.08;1.33;;;9.90;99.90;;;;;;5081440;28;20081;-63
2023/01/14 11:43:15;;;;;;;3.63;1.00;;;9.90;99.90;;;;;;5096485;28;20051;-65
2023/01/14 11:45:42;;;;;;;1.95;0.88;;;10.00;99.90;;;;;;5098969;28;20027;-66
2023/01/14 11:48:24;;;;;;;1.48;0.95;;;9.90;99.90;;;;;;5081225;28;20050;-64
2023/01/14 11:51:00;;;;;;;;;;;9.90;99.90;;;;;;5099414;28;20348;-64
2023/01/14 11:53:42;;;;;;;2.47;0.77;;;10.00;99.90;;;;;;5098822;28;19908;-64
2023/01/14 11:56:34;;;;;;;2.08;0.70;;;10.10;99.90;;;;;;5081183;28;20035;-64
2023/01/14 11:59:26;;;;;;;2.67;0.90;;;10.10;99.90;;;;;;5078036;28;20097;-65
2023/01/14 12:01:59;;;;;;;3.85;1.00;;;10.10;99.90;;;;;;5074742;28;20060;-64
2023/01/14 12:04:42;;;;;;;2.85;0.93;;;10.10;99.90;;;;;;5078334;28;20064;-64
2023/01/14 12:07:13;;;;;;;;;;;10.10;99.90;;;;;;5077769;28;20039;-63
2023/01/14 12:09:47;;;;;;;4.63;1.55;;;10.20;99.90;;;;;;5077815;28;19912;-64
2023/01/14 12:12:27;;;;;;;4.68;1.00;;;10.20;99.90;;;;;;5043182;28;20124;-66
2023/01/14 12:17:53;;;;;;;2.80;1.10;;;10.20;99.90;;;;;;5078376;28;20133;-61
2023/01/14 12:20:23;;;;;;;3.35;1.30;;;10.30;99.90;;;;;;5060686;28;20028;-64
2023/01/14 12:23:07;;;;;;;5.13;2.80;;;10.30;99.90;;;;;;5078066;28;20070;-65
2023/01/14 12:25:43;;;;;;;4.20;1.30;;;10.40;99.90;;;;;;5060578;28;20075;-66
2023/01/14 12:28:30;;;;;;;5.05;1.92;;;10.40;99.90;;;;;;5077832;28;20288;-66
2023/01/14 12:31:05;;;;;;;1.80;0.90;;;10.40;99.90;;;;;;5077773;28;20111;-61
2023/01/14 12:34:03;;;;;;;2.97;1.23;;;10.40;99.90;;;;;;5077752;28;20103;-64
2023/01/14 12:37:04;;;;;;;2.67;0.93;;;10.50;99.90;;;;;;5047004;28;20055;-64
2023/01/14 12:45:42;;;;;;;2.53;0.77;;;10.80;99.90;;;;;;5077334;28;20043;-66
2023/01/14 12:48:09;;;;;;;2.42;0.90;;;10.70;99.90;;;;;;5077570;28;20062;-64
2023/01/14 12:50:41;;;;;;;2.95;0.90;;;10.70;99.90;;;;;;5077168;28;20133;-62
2023/01/14 12:53:14;;;;;;;4.13;1.10;;;10.70;99.90;;;;;;5077447;28;20087;-65
2023/01/14 12:55:44;;;;;;;3.25;1.10;;;10.60;99.90;;;;;;5059917;28;20047;-61
2023/01/14 12:58:24;;;;;;;6.57;1.17;;;10.60;99.90;;;;;;5060118;28;20281;-63
2023/01/14 13:00:56;;;;;;;3.33;1.45;;;10.60;99.90;;;;;;5077507;28;20032;-63
2023/01/14 13:03:45;;;;;;;3.92;1.20;;;10.60;99.90;;;;;;5077320;28;20106;-64
2023/01/14 13:06:18;;;;;;;3.03;0.95;;;10.60;99.90;;;;;;5076634;28;20044;-62
2023/01/14 13:08:51;;;;;;;3.88;1.20;;;10.60;99.90;;;;;;5077175;28;20040;-62
2023/01/14 13:11:36;;;;;;;3.38;1.30;;;10.60;99.90;;;;;;5077140;28;20078;-62
2023/01/14 13:14:05;;;;;;;3.60;1.25;;;10.70;99.90;;;;;;5077462;28;20277;-64
2023/01/14 13:16:44;;;;;;;2.92;1.00;;;10.70;99.90;;;;;;5059682;28;20094;-61
2023/01/14 13:19:25;;;;;;;2.72;1.27;;;10.70;99.90;;;;;;5059702;28;20032;-63
2023/01/14 13:22:00;;;;;;;5.20;1.30;;;10.80;99.90;;;;;;5077028;28;20028;-62
2023/01/14 13:24:47;;;;;;;2.60;1.20;;;10.80;99.90;;;;;;5077398;28;20101;-62
2023/01/14 13:27:31;;;;;;;3.67;1.20;;;10.80;99.90;;;;;;5037203;28;20090;-63
2023/01/14 13:30:18;;;;;;;2.78;1.17;;;10.90;99.90;;;;;;5076735;28;20028;-62
2023/01/14 13:32:50;;;;;;;1.88;1.13;;;10.80;99.90;;;;;;5076815;28;20029;-64
2023/01/14 13:35:21;;;;;;;1.23;0.85;;;10.90;99.90;;;;;;5077055;28;20277;-65
2023/01/14 13:37:49;;;;;;;3.33;0.85;;;10.80;99.90;;;;;;5076853;28;20040;-62
2023/01/14 13:40:21;;;;;;;1.85;0.90;;;10.90;99.90;;;;;;5076911;28;20024;-65
2023/01/14 13:42:58;;;;;;;3.13;0.90;;;10.90;99.90;;;;;;5076725;28;20075;-65
2023/01/14 13:45:28;;;;;;;1.92;0.70;;;10.90;99.90;;;;;;5077118;28;20020;-65
2023/01/14 13:48:07;;;;;;;3.00;0.95;;;11.00;99.90;;;;;;5043274;28;20032;-62
2023/01/14 13:50:33;;;;;;;0.93;0.80;;;11.00;99.90;;;;;;5076716;28;20285;-62
2023/01/14 13:53:25;;;;;;;2.20;1.10;;;11.00;99.90;;;;;;5076984;28;20028;-62
2023/01/14 13:55:56;;;;;;;2.13;1.08;;;11.00;99.90;;;;;;5076610;28;20071;-61
2023/01/14 13:58:33;;;;;;;2.13;0.80;;;11.00;99.90;;;;;;5076575;28;20036;-63
2023/01/14 14:01:25;;;;;;;2.70;0.80;;;11.00;99.90;;;;;;5076597;28;20032;-61
2023/01/14 14:03:55;;;;;;;1.67;1.00;;;11.00;99.90;;;;;;5059125;28;20033;-64
2023/01/14 14:06:21;;;;;;;1.40;1.00;;;11.00;99.90;;;;;;5058943;28;20037;-64
2023/01/14 14:09:01;;;;;;;1.67;0.90;;;11.10;99.90;;;;;;5076409;28;20296;-63
2023/01/14 14:11:29;;;;;;;1.20;0.80;;;11.10;99.90;;;;;;5042386;28;20322;-66
2023/01/14 14:14:07;;;;;;;1.95;0.88;;;11.20;99.90;;;;;;5076369;28;20139;-63
2023/01/14 14:16:54;;;;;;;1.85;0.70;;;11.20;99.90;;;;;;5076431;28;20352;-63
2023/01/14 14:19:44;;;;;;;3.33;0.90;;;11.20;99.90;;;;;;5076377;28;20055;-65
2023/01/14 14:22:17;;;;;;;2.20;0.80;;;11.20;99.90;;;;;;5059150;28;20411;-71
2023/01/14 14:24:57;;;;;;;2.45;0.90;;;11.30;99.90;;;;;;5059041;28;20315;-68
2023/01/14 14:27:36;;;;;;;0.93;0.77;;;11.30;99.90;;;;;;5076370;28;20033;-66
2023/01/14 14:30:15;;;;;;;2.47;1.10;;;11.40;99.90;;;;;;5059062;28;20040;-66
2023/01/14 14:32:42;;;;;;;1.40;0.98;;;11.40;99.90;;;;;;5076339;28;20384;-68
2023/01/14 14:35:20;;;;;;;1.90;0.93;;;11.40;99.90;;;;;;5077709;28;20051;-67
2023/01/14 14:37:55;;;;;;;1.38;1.17;;;11.40;99.90;;;;;;5080074;28;20056;-68
2023/01/14 14:40:26;;;;;;;2.92;1.58;;;11.40;99.90;;;;;;5080003;28;20051;-66
2023/01/14 14:42:53;;;;;;;1.83;0.90;;;11.40;99.90;;;;;;5079988;28;20086;-68
2023/01/14 14:45:32;;;;;;;2.80;1.02;;;11.40;99.90;;;;;;5062356;28;20035;-64
2023/01/14 14:47:59;;;;;;;1.42;0.80;;;11.40;99.90;;;;;;5079933;28;20032;-68
2023/01/14 14:50:36;;;;;;;1.67;0.90;;;11.40;99.90;;;;;;5079584;28;20055;-65
2023/01/14 14:53:03;;;;;;;1.80;1.23;;;11.40;99.90;;;;;;5062362;28;20025;-65
2023/01/14 14:55:47;;;;;;;2.38;1.00;;;11.40;99.90;;;;;;5079664;28;20085;-64
2023/01/14 14:58:15;;;;;;;0.80;0.80;;;11.50;99.90;;;;;;5079746;28;20115;-62
2023/01/14 15:00:41;;;;;;;1.88;0.90;;;11.50;99.90;;;;;;5062144;28;20025;-64
2023/01/14 15:03:16;;;;;;;1.77;0.82;;;11.40;99.90;;;;;;5062103;28;20055;-65
2023/01/14 15:05:43;;;;;;;1.98;0.80;;;11.50;99.90;;;;;;5079929;28;20429;-65
2023/01/14 15:08:18;;;;;;;2.20;0.82;;;11.40;99.90;;;;;;5079379;28;20027;-64
2023/01/14 15:10:45;;;;;;;1.73;0.90;;;11.40;99.90;;;;;;5079438;28;20016;-63
2023/01/14 15:13:32;;;;;;;2.35;1.00;;;11.40;99.90;;;;;;5062029;28;20075;-65
2023/01/14 15:16:10;;;;;;;1.63;1.08;;;11.40;99.90;;;;;;5079375;28;20044;-66
2023/01/14 15:18:56;;;;;;;2.88;1.20;;;11.40;99.90;;;;;;5079324;28;20043;-64
2023/01/14 15:21:26;;;;;;;1.85;0.80;;;11.40;99.90;;;;;;5079462;28;20039;-64
2023/01/14 15:23:55;;;;;;;1.55;0.90;;;11.40;99.90;;;;;;5062195;28;20249;-64
2023/01/14 15:26:28;;;;;;;2.65;1.73;;;11.40;99.90;;;;;;5045149;28;20029;-66
2023/01/14 15:28:56;;;;;;;1.83;1.10;;;11.40;99.90;;;;;;5061702;28;20028;-66
2023/01/14 15:31:26;;;;;;;1.00;0.80;;;11.40;99.90;;;;;;5078991;28;20171;-67
2023/01/14 15:34:02;;;;;;;2.63;1.00;;;11.40;99.90;;;;;;5078925;28;20479;-62
2023/01/14 15:36:30;;;;;;;2.25;1.08;;;11.50;99.90;;;;;;5044713;28;20021;-62
2023/01/14 15:38:57;;;;;;;2.35;1.20;;;11.40;99.90;;;;;;5078843;28;20028;-66
2023/01/14 15:41:24;;;;;;;1.00;0.80;;;11.40;99.90;;;;;;5078784;28;20036;-65
2023/01/14 15:43:51;;;;;;;0.90;0.90;;;11.40;99.90;;;;;;5078819;28;20028;-64
2023/01/14 15:46:21;;;;;;;2.20;1.27;;;11.40;99.90;;;;;;5061184;28;20036;-64
2023/01/14 15:49:09;;;;;;;1.40;1.02;;;11.40;99.90;;;;;;5078827;28;20055;-65
2023/01/14 15:51:38;;;;;;;1.65;1.00;;;11.50;99.90;;;;;;5058648;28;20048;-65
2023/01/14 15:54:30;;;;;;;2.33;1.50;;;11.50;99.90;;;;;;5058726;28;20108;-64
2023/01/14 15:56:55;;;;;;;2.00;1.27;;;11.40;99.90;;;;;;5057839;28;20029;-61
2023/01/14 15:59:23;;;;;;;2.00;0.90;;;11.40;99.90;;;;;;5058609;28;20419;-65
2023/01/14 16:01:54;;;;;;;1.25;0.90;;;11.40;99.90;;;;;;5058542;28;20036;-63
2023/01/14 16:04:23;;;;;;;0.80;0.80;;;11.40;99.90;;;;;;5058565;28;20029;-64
2023/01/14 16:07:03;;;;;;;1.45;0.90;;;11.40;99.90;;;;;;5057694;28;20278;-63
2023/01/14 16:09:28;;;;;;;0.85;0.80;;;11.40;99.90;;;;;;5058405;28;20033;-67
2023/01/14 16:11:54;;;;;;;1.17;1.00;;;11.40;99.90;;;;;;5058397;28;20033;-63
2023/01/14 16:14:38;;;;;;;1.08;0.95;;;11.40;99.90;;;;;;5057456;28;20029;-61
2023/01/14 16:17:09;;;;;;;2.30;1.17;;;11.40;99.90;;;;;;5058291;28;20041;-62
2023/01/14 16:19:37;;;;;;;0.80;0.80;;;11.40;99.90;;;;;;5058242;28;20039;-63
2023/01/14 16:22:03;;;;;;;1.73;1.00;;;11.40;99.90;;;;;;5058262;28;20115;-65
2023/01/14 16:24:28;;;;;;;1.30;1.10;;;11.40;99.90;;;;;;5058124;28;20417;-60
2023/01/14 16:26:55;;;;;;;1.45;1.30;;;11.40;99.90;;;;;;5058035;28;20087;-63
2023/01/14 16:29:22;;;;;;;1.77;1.10;;;11.40;99.90;;;;;;5057922;28;20025;-62
2023/01/14 16:31:48;;;;;;;1.45;1.02;;;11.40;99.90;;;;;;5057832;28;20079;-63
2023/01/14 16:34:13;;;;;;;2.30;1.15;;;11.50;99.90;;;;;;5058151;28;20028;-62
2023/01/14 16:36:39;;;;;;;1.25;1.15;;;11.40;99.90;;;;;;5057757;28;20055;-64
2023/01/14 16:39:13;;;;;;;0.93;0.90;;;11.50;99.90;;;;;;5057877;28;20029;-62
2023/01/14 16:41:44;;;;;;;2.75;1.10;;;11.50;99.90;;;;;;5058112;28;20086;-63
2023/01/14 16:44:11;;;;;;;2.15;1.15;;;11.50;99.90;;;;;;5057585;28;20051;-64
2023/01/14 16:46:36;;;;;;;1.88;1.40;;;11.50;99.90;;;;;;5058059;28;20052;-62
2023/01/14 16:49:03;;;;;;;2.97;1.30;;;11.50;99.90;;;;;;5057420;28;20033;-62
2023/01/14 16:51:30;;;;;;;1.95;1.20;;;11.50;99.90;;;;;;5076672;28;20048;-63
2023/01/14 16:53:56;;;;;;;1.48;1.15;;;11.60;99.90;;;;;;5043476;28;20063;-61
2023/01/14 16:56:22;;;;;;;2.45;1.58;;;11.60;99.90;;;;;;5027048;28;20032;-65
2023/01/14 16:58:53;;;;;;;2.42;1.42;;;11.60;99.90;;;;;;5076824;28;20016;-62
2023/01/14 17:01:19;;;;;;;1.25;1.10;;;11.60;99.90;;;;;;5077319;28;20045;-63
2023/01/14 17:03:45;;;;;;;1.92;1.20;;;11.70;99.90;;;;;;5077246;28;20153;-62
2023/01/14 17:06:15;;;;;;;1.15;1.05;;;11.70;99.90;;;;;;5059964;28;20028;-61
2023/01/14 17:08:41;;;;;;;1.33;1.10;;;11.70;99.90;;;;;;5076989;28;20028;-63
2023/01/14 17:13:53;;;;;;;1.02;1.00;;;11.80;99.90;;;;;;5059562;28;20106;-63
2023/01/14 17:16:18;;;;;;;1.88;1.33;;;11.80;99.90;;;;;;5077109;28;20020;-61
2023/01/14 17:18:44;;;;;;;1.63;1.20;;;11.80;99.90;;;;;;5076886;28;20032;-61
2023/01/14 17:21:11;;;;;;;1.30;1.20;;;11.80;99.90;;;;;;5077108;28;20098;-61
2023/01/14 17:23:37;;;;;;;1.75;1.40;;;11.90;99.90;;;;;;5076912;28;20284;-60
2023/01/14 17:26:07;;;;;;;1.33;1.20;;;11.90;99.90;;;;;;5077028;28;20046;-61
2023/01/14 17:28:34;;;;;;;1.83;1.40;;;11.90;99.90;;;;;;5076752;28;20078;-60
2023/01/14 17:31:07;;;;;;;2.78;1.50;;;11.90;99.90;;;;;;5076866;28;20074;-61
2023/01/14 17:33:33;;;;;;;1.65;1.50;;;12.00;99.90;;;;;;5076849;28;20105;-63
2023/01/14 17:36:08;;;;;;;1.85;1.67;;;12.00;99.90;;;;;;5076831;28;20326;-61
2023/01/14 17:38:34;;;;;;;1.33;1.10;;;12.10;99.90;;;;;;5059365;28;20123;-60
2023/01/14 17:42:10;;;;;;;4.32;1.60;;;12.10;99.90;;;;;;5076693;28;20051;-66
2023/01/14 17:43:50;;;;;;;1.20;1.10;;;12.10;99.90;;;;;;5061577;28;20399;-62
2023/01/14 17:46:16;;;;;;;1.98;1.23;;;12.20;99.90;;;;;;5059364;28;20036;-62
2023/01/14 17:48:42;;;;;;;3.20;1.75;;;12.20;99.90;;;;;;5076535;28;20270;-62
2023/01/14 17:51:07;;;;;;;1.63;1.40;;;12.30;99.90;;;;;;5076544;28;20312;-60
2023/01/14 17:53:33;;;;;;;1.92;1.70;;;12.30;99.90;;;;;;5076592;28;20041;-61
2023/01/14 17:56:04;;;;;;;1.60;1.50;;;12.40;99.90;;;;;;5077050;28;20036;-61
2023/01/14 17:58:31;;;;;;;2.28;1.30;;;12.50;99.90;;;;;;5076845;28;20028;-61
2023/01/14 18:01:09;;;;;;;1.95;1.40;;;12.40;99.90;;;;;;5077259;28;20049;-65
2023/01/14 18:03:35;;;;;;;1.60;1.10;;;12.40;99.90;;;;;;5076776;28;20064;-63
2023/01/14 18:06:02;;;;;;;1.70;0.90;;;12.30;99.90;;;;;;5076712;28;20060;-66
2023/01/14 18:08:33;;;;;;;1.70;1.10;;;12.20;99.90;;;;;;5076495;28;20037;-63
2023/01/14 18:11:08;;;;;;;1.73;1.10;;;12.10;99.90;;;;;;5079554;28;20055;-66
2023/01/14 18:13:34;;;;;;;1.70;1.27;;;12.00;99.90;;;;;;5080634;28;20032;-65
2023/01/14 18:16:00;;;;;;;2.30;1.20;;;12.00;99.90;;;;;;5063275;28;20025;-64
2023/01/14 18:18:26;;;;;;;1.90;1.40;;;12.00;99.90;;;;;;5063215;28;20032;-66
2023/01/14 18:21:10;;;;;;;4.50;1.60;;;11.90;99.90;;;;;;5080432;28;20044;-63
2023/01/14 18:23:38;;;;;;;4.80;1.42;;;11.90;99.90;;;;;;5080282;28;20036;-63
2023/01/14 18:26:10;;;;;;;4.68;1.40;;;11.90;99.90;;;;;;5080762;28;20415;-61
2023/01/14 18:28:38;;;;;;;4.97;1.77;;;11.80;99.90;;;;;;5080290;28;20032;-62
2023/01/14 18:31:04;;;;;;;3.65;1.52;;;11.80;99.90;;;;;;5079996;28;20023;-62
2023/01/14 18:33:31;;;;;;;2.80;1.40;;;11.80;99.90;;;;;;5080148;28;20020;-63
2023/01/14 18:35:57;;;;;;;4.88;1.40;;;11.70;99.90;;;;;;5080140;28;20031;-65
2023/01/14 18:38:23;;;;;;;5.25;1.45;;;11.70;99.90;;;;;;5062915;28;20028;-61
2023/01/14 18:40:49;;;;;;;3.42;1.20;;;11.70;99.90;;;;;;5080117;28;20048;-65
2023/01/14 18:43:15;;;;;;;3.88;1.00;;;11.70;99.90;;;;;;5080005;28;20078;-65
2023/01/14 18:45:41;;;;;;;5.57;1.52;;;11.60;99.90;;;;;;5080000;28;20396;-65
2023/01/14 18:48:07;;;;;;;4.35;1.30;;;11.60;99.90;;;;;;5079763;28;20307;-65
2023/01/14 18:50:32;;;;;;;4.90;1.27;;;11.60;99.90;;;;;;5079711;28;20109;-66
2023/01/14 18:53:00;;;;;;;5.10;1.00;;;11.50;99.90;;;;;;5079851;28;20363;-66
2023/01/14 18:55:26;;;;;;;6.95;1.45;;;11.60;99.90;;;;;;5079837;28;20051;-62
2023/01/14 18:57:52;;;;;;;8.90;2.22;;;11.60;99.90;;;;;;5079734;28;20301;-62
2023/01/14 19:00:18;;;;;;;6.90;1.90;;;11.60;99.90;;;;;;5062344;28;20029;-66
2023/01/14 19:02:44;;;;;;;9.45;2.00;;;11.60;99.90;;;;;;5062239;28;20028;-63
2023/01/14 19:05:11;;;;;;;6.05;2.38;;;11.50;99.90;;;;;;5062334;28;20047;-64
2023/01/14 19:07:37;;;;;;;6.95;2.22;;;11.60;99.90;;;;;;5062186;28;20042;-62
2023/01/14 19:10:04;;;;;;;7.60;3.10;;;11.60;99.90;;;;;;5079542;28;20016;-67
2023/01/14 19:12:30;;;;;;;7.75;2.35;;;11.60;99.90;;;;;;5079522;28;20025;-62
2023/01/14 19:14:56;;;;;;;11.02;2.45;;;11.60;99.90;;;;;;5079407;28;20040;-63
2023/01/14 19:17:22;;;;;;;8.23;2.00;;;11.60;99.90;;;;;;5079385;28;20036;-64
2023/01/14 19:19:49;;;;;;;7.88;1.63;;;11.50;99.90;;;;;;5062016;28;20037;-64
2023/01/14 19:22:17;;;;;;;6.03;1.40;;;11.50;99.90;;;;;;5061434;28;20032;-64
2023/01/14 19:24:44;;;;;;;6.88;1.67;;;11.40;99.90;;;;;;5061419;28;20029;-65
2023/01/14 19:27:11;;;;;;;7.38;1.65;;;11.50;99.90;;;;;;5041650;28;20020;-63
2023/01/14 19:29:37;;;;;;;7.40;1.65;;;11.50;99.90;;;;;;5059013;28;20045;-63
2023/01/14 19:32:03;;;;;;;8.05;1.83;;;11.50;99.90;;;;;;5078068;28;20086;-66
2023/01/14 19:34:30;;;;;;;8.95;2.03;;;11.40;99.90;;;;;;5058012;28;20384;-63
2023/01/14 19:36:58;;;;;;;6.88;1.50;;;11.40;99.90;;;;;;5077935;28;20056;-64
2023/01/14 19:39:29;;;;;;;6.05;1.63;;;11.40;99.90;;;;;;5077955;28;20102;-63
2023/01/14 19:41:55;;;;;;;5.95;1.50;;;11.30;99.90;;;;;;5077867;28;20027;-64
2023/01/14 19:44:22;;;;;;;7.13;1.40;;;11.30;99.90;;;;;;5077816;28;20032;-70
2023/01/14 19:46:49;;;;;;;8.30;1.63;;;11.40;99.90;;;;;;5060628;28;20037;-71
2023/01/14 19:49:16;;;;;;;9.18;1.80;;;11.30;99.90;;;;;;5077596;28;20261;-64
2023/01/14 19:51:42;;;;;;;7.47;1.70;;;11.40;99.90;;;;;;5077802;28;20033;-67
2023/01/14 19:54:10;;;;;;;7.90;2.00;;;11.40;99.90;;;;;;5077588;28;20073;-65
2023/01/14 19:56:37;;;;;;;9.57;2.15;;;11.30;99.90;;;;;;5060352;28;20123;-66
2023/01/14 19:59:04;;;;;;;6.25;1.65;;;11.30;99.90;;;;;;5059222;28;20044;-66
2023/01/14 20:01:32;;;;;;;7.97;2.10;;;11.30;99.90;;;;;;5074879;28;20111;-64
2023/01/14 20:04:00;;;;;;;6.30;1.92;;;11.30;99.90;;;;;;5077329;28;20021;-71
2023/01/14 20:06:28;;;;;;;9.32;2.22;;;11.30;99.90;;;;;;5059736;28;20033;-66
2023/01/14 20:08:54;;;;;;;6.20;1.65;;;11.30;99.90;;;;;;5077176;28;20037;-64
2023/01/14 20:11:21;;;;;;;9.40;1.92;;;11.20;99.90;;;;;;5077208;28;20035;-65
2023/01/14 20:13:53;;;;;;;7.05;1.70;;;11.20;99.90;;;;;;5077155;28;20296;-72
2023/01/14 20:16:19;;;;;;;5.63;1.87;;;11.30;99.90;;;;;;5077311;28;20048;-65
2023/01/14 20:18:45;;;;;;;8.95;1.80;;;11.30;99.90;;;;;;5043269;28;20048;-67
2023/01/14 20:21:13;;;;;;;7.70;1.95;;;11.30;99.90;;;;;;5043146;28;20032;-70
2023/01/14 20:23:39;;;;;;;5.45;1.45;;;11.40;99.90;;;;;;5058269;28;20029;-66
2023/01/14 20:26:08;;;;;;;7.15;1.70;;;11.30;99.90;;;;;;5077995;28;20108;-67
2023/01/14 20:28:35;;;;;;;7.10;1.83;;;11.20;99.90;;;;;;5077896;28;20028;-67
2023/01/14 20:31:10;;;;;;;9.27;2.00;;;11.20;99.90;;;;;;5077949;28;20025;-67
2023/01/14 20:33:36;;;;;;;7.53;1.75;;;11.20;99.90;;;;;;5059729;28;20044;-66
2023/01/14 20:36:04;;;;;;;7.88;2.38;;;11.20;99.90;;;;;;5060496;28;20438;-70
2023/01/14 20:38:30;;;;;;;5.72;2.17;;;11.20;99.90;;;;;;5060602;28;20308;-71
2023/01/14 20:41:01;;;;;;;10.52;2.20;;;11.20;99.90;;;;;;5077813;28;20040;-71
2023/01/14 20:43:28;;;;;;;8.93;2.40;;;11.30;99.90;;;;;;5043712;28;20387;-67
2023/01/14 20:45:53;;;;;;;6.15;2.20;;;11.30;99.90;;;;;;5060418;28;20043;-66
2023/01/14 20:48:22;;;;;;;5.65;2.08;;;11.20;99.90;;;;;;5077539;28;20400;-69
2023/01/14 20:50:53;;;;;;;8.85;2.17;;;11.10;99.90;;;;;;5060216;28;20113;-66
2023/01/14 20:53:20;;;;;;;8.10;2.22;;;11.00;99.90;;;;;;5077538;28;20028;-68
2023/01/14 20:55:47;;;;;;;6.57;2.25;;;10.90;99.90;;;;;;5060405;28;20388;-65
2023/01/14 20:59:22;;;;;;;10.38;2.10;;;10.90;99.90;;;;;;5077520;28;20056;-70
2023/01/14 21:01:18;;;;;;;11.25;2.13;;;10.90;99.90;;;;;;5059534;28;20222;-68
2023/01/14 21:03:44;;;;;;;9.45;1.98;;;11.00;99.90;;;;;;5077380;28;20025;-66
2023/01/14 21:06:13;;;;;;;7.07;2.40;;;11.00;99.90;;;;;;5077885;28;20024;-67
2023/01/14 21:08:39;;;;;;;8.00;2.20;;;10.90;99.90;;;;;;5077194;28;20307;-66
2023/01/14 21:11:17;;;;;;;9.50;2.17;;;10.80;99.90;;;;;;5077269;28;20036;-69
2023/01/14 21:25:02;;;;;;;6.90;1.63;;;10.70;99.90;;;;;;5059619;28;20132;-70
2023/01/14 21:27:28;;;;;;;10.13;1.38;;;10.60;99.90;;;;;;5059748;28;20465;-70
2023/01/14 21:29:54;;;;;;;5.68;1.20;;;10.50;99.90;;;;;;5043287;28;20029;-71
2023/01/14 21:32:20;;;;;;;6.70;1.23;;;10.50;99.90;;;;;;5043438;28;20029;-66
2023/01/14 21:34:45;;;;;;;6.13;1.40;;;10.50;99.90;;;;;;5026592;28;20387;-70
2023/01/14 21:37:11;;;;;;;5.22;1.20;;;10.40;99.90;;;;;;5077031;28;20029;-70
2023/01/14 21:39:37;;;;;;;8.00;1.60;;;10.40;99.90;;;;;;5076823;28;20037;-65
2023/01/14 21:44:47;;;;;;;4.32;1.20;;;10.40;99.90;;;;;;5062118;28;20040;-67
2023/01/14 21:47:13;;;;;;;4.28;1.20;;;10.40;99.90;;;;;;5043288;28;20288;-69
2023/01/14 21:49:39;;;;;;;3.75;1.13;;;10.30;99.90;;;;;;5076928;28;20044;-69
2023/01/14 21:52:05;;;;;;;7.75;1.67;;;10.30;99.90;;;;;;5059927;28;20119;-68
2023/01/14 21:54:31;;;;;;;6.53;1.15;;;10.30;99.90;;;;;;5059739;28;20033;-68
2023/01/14 21:56:57;;;;;;;5.70;1.13;;;10.20;99.90;;;;;;5076794;28;20037;-70
2023/01/14 21:59:23;;;;;;;3.78;1.00;;;10.10;99.90;;;;;;5076684;28;20036;-70
2023/01/14 22:01:49;;;;;;;3.70;0.82;;;10.10;99.90;;;;;;5043206;28;20056;-68
2023/01/14 22:04:15;;;;;;;3.55;0.88;;;10.00;99.90;;;;;;5059374;28;20040;-69
2023/01/14 22:06:40;;;;;;;4.55;0.88;;;10.00;99.90;;;;;;5059393;28;20028;-67
2023/01/14 22:09:07;;;;;;;3.75;0.98;;;9.80;99.90;;;;;;5059142;28;20059;-65
2023/01/14 22:11:34;;;;;;;5.05;0.90;;;9.70;99.90;;;;;;5042744;28;20029;-71
2023/01/14 22:14:00;;;;;;;2.03;0.75;;;9.80;99.90;;;;;;5042967;28;20029;-70
2023/01/14 22:16:26;;;;;;;4.63;0.88;;;9.80;99.90;;;;;;5026250;28;20033;-70
2023/01/14 22:18:53;;;;;;;4.53;0.95;;;9.80;99.90;;;;;;5026087;28;20105;-70
2023/01/14 22:21:18;;;;;;;9.05;1.33;;;9.80;99.90;;;;;;5059124;28;20029;-67
2023/01/14 22:23:44;;;;;;;3.88;1.00;;;9.70;99.90;;;;;;5076668;28;20036;-71
2023/01/14 22:26:13;;;;;;;7.00;1.23;;;9.70;99.90;;;;;;5077110;28;20123;-73
2023/01/14 22:28:40;;;;;;;3.78;0.90;;;9.70;99.90;;;;;;5043122;28;20393;-69
2023/01/14 22:31:08;;;;;;;10.18;1.17;;;9.60;99.90;;;;;;5043089;28;20118;-68
2023/01/14 22:33:34;;;;;;;5.45;0.88;;;9.50;99.90;;;;;;5059403;28;20032;-70
2023/01/14 22:35:59;;;;;;;6.30;0.85;;;9.40;99.90;;;;;;5076817;28;20036;-71
2023/01/14 22:38:25;;;;;;;2.53;0.80;;;9.40;99.90;;;;;;5042794;28;20025;-69
2023/01/14 22:40:51;;;;;;;6.32;1.10;;;9.30;99.90;;;;;;5059313;28;20086;-71
2023/01/14 22:43:17;;;;;;;2.15;0.88;;;9.30;99.90;;;;;;5042887;28;20047;-68
2023/01/14 22:45:43;;;;;;;4.70;1.00;;;9.40;99.90;;;;;;5059356;28;20029;-74
2023/01/14 22:48:09;;;;;;;1.88;0.80;;;9.40;99.90;;;;;;5026191;28;20423;-66
2023/01/14 22:50:36;;;;;;;5.30;0.80;;;9.30;99.90;;;;;;5058633;28;20136;-73
2023/01/14 22:53:03;;;;;;;5.07;0.98;;;9.30;99.90;;;;;;5076584;28;20032;-72
2023/01/14 22:55:29;;;;;;;3.97;0.90;;;9.30;99.90;;;;;;5077053;28;20037;-70
2023/01/14 22:57:55;;;;;;;3.50;0.65;;;9.30;99.90;;;;;;5079851;28;20025;-74
2023/01/14 23:00:22;;;;;;;9.68;1.23;;;9.20;99.90;;;;;;5062499;28;20052;-73
2023/01/14 23:02:48;;;;;;;8.02;1.23;;;9.00;99.90;;;;;;5062341;28;20033;-71
2023/01/14 23:05:14;;;;;;;6.75;1.77;;;9.10;99.90;;;;;;5079751;28;20453;-73
2023/01/14 23:07:40;;;;;;;7.22;1.48;;;9.20;99.90;;;;;;5079715;28;20466;-74
2023/01/14 23:10:07;;;;;;;4.00;0.85;;;9.20;99.90;;;;;;5062256;28;20043;-74
2023/01/14 23:12:34;;;;;;;7.07;1.10;;;9.30;99.90;;;;;;5045399;28;20415;-68
2023/01/14 23:14:59;;;;;;;10.18;1.00;;;9.20;99.90;;;;;;5079730;28;20044;-69
2023/01/14 23:17:25;;;;;;;9.00;1.30;;;9.10;99.90;;;;;;5062072;28;20024;-72
2023/01/14 23:19:52;;;;;;;6.55;1.15;;;9.10;99.90;;;;;;5061964;28;20087;-70
2023/01/14 23:25:03;;;;;;;5.30;0.98;;;9.10;99.90;;;;;;5079395;28;20033;-68
2023/01/14 23:27:29;;;;;;;3.22;0.85;;;9.00;99.90;;;;;;5079335;28;20043;-68
2023/01/14 23:29:55;;;;;;;6.28;1.10;;;9.10;99.90;;;;;;5079352;28;20029;-67
2023/01/14 23:32:21;;;;;;;3.72;1.00;;;9.10;99.90;;;;;;5061982;28;20178;-70
2023/01/14 23:34:47;;;;;;;6.68;1.23;;;9.00;99.90;;;;;;5079677;28;20032;-71